Tulihe, China
Current Conditions -  °F | °C
As of 8:30 AM on Saturday 20 Dec 2014 (Local Time) from UHBB Reporting Station
Clear Clear  
Wind Chill: -18°   Ceiling: Unl
Heat Index: -18°   Visibility: 6mi
Dew Point: -22°   Wind: 2mph
Humidity: 84%   Direction: NA
Pressure: 30.12"   Gusts: NA
Location:  50.45°N, 121.7°E
Report Text: UHBB 200030Z VRB01MPS CAVOK M28/M30 Q1020 NOSIG RMK QFE747/099736412050
Loading
Personal Weather Stations






























Interactive Weather Map New forecast layout! Learn more

10-Day Weather Forecast

Advertisements
Track Severe Weather on mobile